AFR067 GOBD-DGAA
Flight info
| Callsign | AFR067 |
|---|---|
| Flight time | N/A |
| Altitude | FL350 |
| Route | ERID1B ERIDI UR979 AD UB600 MIMTI MIMT1B |
| Aircraft | A21N/M-SDE3FGHIRWY/LB1 |
Departure
| Time | 2026-05-07 16:02 |
|---|---|
| Airport | Blaise Diagne International Airport (GOBD) |
Arrival
| Time | N/A |
|---|---|
| Airport | Kotoka International Airport (DGAA) |
| Time | Latitude | Longitude | Altitude | Speed | Heading |
|---|---|---|---|---|---|
| 2026-05-07 15:38 | 14.67214 | -17.06837 | 278 ft | 0 kts | 147° |
| 2026-05-07 15:50 | 14.67225 | -17.06846 | 276 ft | 2 kts | 135° |
| 2026-05-07 15:50 | 14.67236 | -17.06856 | 276 ft | 2 kts | 141° |
| 2026-05-07 15:51 | 14.67247 | -17.06866 | 276 ft | 2 kts | 139° |
| 2026-05-07 15:51 | 14.67259 | -17.06876 | 276 ft | 2 kts | 140° |
| 2026-05-07 15:51 | 14.67270 | -17.06886 | 276 ft | 2 kts | 139° |
| 2026-05-07 15:51 | 14.67282 | -17.06896 | 275 ft | 2 kts | 140° |
| 2026-05-07 15:52 | 14.67293 | -17.06906 | 275 ft | 2 kts | 140° |
| 2026-05-07 15:52 | 14.67305 | -17.06915 | 275 ft | 2 kts | 140° |
| 2026-05-07 15:52 | 14.67314 | -17.06924 | 275 ft | 1 kts | 138° |
| 2026-05-07 15:52 | 14.67323 | -17.06926 | 275 ft | 2 kts | 183° |
| 2026-05-07 15:53 | 14.67334 | -17.06926 | 275 ft | 1 kts | 173° |
| 2026-05-07 15:53 | 14.67339 | -17.06926 | 275 ft | 0 kts | 180° |
| 2026-05-07 15:54 | 14.67338 | -17.06926 | 275 ft | 1 kts | 180° |
| 2026-05-07 15:54 | 14.67281 | -17.06926 | 276 ft | 11 kts | 179° |
| 2026-05-07 15:55 | 14.67207 | -17.06926 | 277 ft | 10 kts | 180° |
| 2026-05-07 15:55 | 14.67136 | -17.06926 | 278 ft | 10 kts | 181° |
| 2026-05-07 15:55 | 14.67060 | -17.06929 | 278 ft | 11 kts | 183° |
| 2026-05-07 15:55 | 14.66979 | -17.06944 | 279 ft | 12 kts | 196° |
| 2026-05-07 15:56 | 14.66898 | -17.06971 | 279 ft | 12 kts | 191° |
| 2026-05-07 15:56 | 14.66809 | -17.06976 | 279 ft | 13 kts | 181° |
| 2026-05-07 15:56 | 14.66714 | -17.06983 | 279 ft | 14 kts | 198° |
| 2026-05-07 15:56 | 14.66656 | -17.07050 | 280 ft | 12 kts | 234° |
| 2026-05-07 15:57 | 14.66579 | -17.07085 | 279 ft | 14 kts | 181° |
| 2026-05-07 15:57 | 14.66477 | -17.07085 | 278 ft | 16 kts | 180° |
| 2026-05-07 15:57 | 14.66363 | -17.07085 | 275 ft | 17 kts | 180° |
| 2026-05-07 15:57 | 14.66237 | -17.07085 | 273 ft | 19 kts | 180° |
| 2026-05-07 15:58 | 14.66107 | -17.07085 | 272 ft | 19 kts | 180° |
| 2026-05-07 15:58 | 14.65982 | -17.07086 | 270 ft | 6 kts | 180° |
| 2026-05-07 15:58 | 14.65933 | -17.07086 | 270 ft | 8 kts | 180° |
| 2026-05-07 15:58 | 14.65891 | -17.07087 | 270 ft | 0 kts | 180° |
| 2026-05-07 15:59 | 14.65890 | -17.07087 | 270 ft | 1 kts | 180° |
| 2026-05-07 15:59 | 14.65870 | -17.07087 | 269 ft | 4 kts | 180° |
| 2026-05-07 15:59 | 14.65829 | -17.07087 | 268 ft | 7 kts | 181° |
| 2026-05-07 15:59 | 14.65768 | -17.07086 | 267 ft | 10 kts | 175° |
| 2026-05-07 16:00 | 14.65685 | -17.07080 | 265 ft | 14 kts | 182° |
| 2026-05-07 16:00 | 14.65620 | -17.07141 | 266 ft | 13 kts | 256° |
| 2026-05-07 16:00 | 14.65628 | -17.07228 | 267 ft | 12 kts | 302° |
| 2026-05-07 16:00 | 14.65691 | -17.07264 | 269 ft | 10 kts | 355° |
| 2026-05-07 16:01 | 14.65755 | -17.07266 | 270 ft | 9 kts | 359° |
| 2026-05-07 16:01 | 14.65769 | -17.07266 | 271 ft | 0 kts | 359° |
| 2026-05-07 16:01 | 14.65897 | -17.07270 | 273 ft | 52 kts | 359° |
| 2026-05-07 16:01 | 14.66492 | -17.07279 | 282 ft | 117 kts | 359° |
| 2026-05-07 16:02 | 14.67488 | -17.07290 | 321 ft | 164 kts | 359° |
| 2026-05-07 16:02 | 14.68643 | -17.07258 | 868 ft | 169 kts | 1° |
| 2026-05-07 16:02 | 14.69806 | -17.07232 | 1590 ft | 168 kts | 0° |
| 2026-05-07 16:02 | 14.70951 | -17.07219 | 2291 ft | 166 kts | 0° |
| 2026-05-07 16:03 | 14.72157 | -17.07233 | 2678 ft | 181 kts | 358° |
| 2026-05-07 16:03 | 14.73467 | -17.07289 | 3038 ft | 197 kts | 357° |
| 2026-05-07 16:03 | 14.74889 | -17.07337 | 3445 ft | 212 kts | 358° |
| 2026-05-07 16:03 | 14.76420 | -17.07360 | 3829 ft | 230 kts | 359° |
| 2026-05-07 16:04 | 14.78081 | -17.07355 | 4252 ft | 247 kts | 0° |
| 2026-05-07 16:04 | 14.79842 | -17.07318 | 4777 ft | 260 kts | 1° |
| 2026-05-07 16:04 | 14.81681 | -17.07249 | 5352 ft | 270 kts | 2° |
| 2026-05-07 16:04 | 14.83594 | -17.07147 | 5982 ft | 278 kts | 2° |
| 2026-05-07 16:05 | 14.85535 | -17.07014 | 6635 ft | 284 kts | 4° |
| 2026-05-07 16:05 | 14.87518 | -17.06848 | 7305 ft | 289 kts | 4° |
| 2026-05-07 16:05 | 14.89532 | -17.06649 | 7988 ft | 294 kts | 5° |
| 2026-05-07 16:05 | 14.91573 | -17.06419 | 8670 ft | 298 kts | 6° |
| 2026-05-07 16:06 | 14.93638 | -17.06156 | 9355 ft | 302 kts | 7° |
| 2026-05-07 16:06 | 14.95722 | -17.05857 | 10055 ft | 304 kts | 6° |
| 2026-05-07 16:06 | 14.97857 | -17.05924 | 10578 ft | 311 kts | 347° |
| 2026-05-07 16:06 | 15.00017 | -17.06436 | 10862 ft | 329 kts | 352° |
| 2026-05-07 16:07 | 15.02372 | -17.06220 | 10877 ft | 355 kts | 18° |
| 2026-05-07 16:07 | 15.04498 | -17.04887 | 10880 ft | 363 kts | 44° |
| 2026-05-07 16:07 | 15.05878 | -17.02719 | 10898 ft | 366 kts | 69° |
| 2026-05-07 16:07 | 15.06400 | -17.00141 | 11243 ft | 373 kts | 89° |
| 2026-05-07 16:08 | 15.05976 | -16.97535 | 11950 ft | 371 kts | 111° |
| 2026-05-07 16:08 | 15.04673 | -16.95249 | 12659 ft | 370 kts | 128° |
| 2026-05-07 16:08 | 15.03078 | -16.93167 | 13276 ft | 373 kts | 129° |
| 2026-05-07 16:08 | 15.01459 | -16.91071 | 13864 ft | 376 kts | 129° |
| 2026-05-07 16:09 | 14.99830 | -16.88949 | 14482 ft | 380 kts | 129° |
| 2026-05-07 16:09 | 14.98191 | -16.86804 | 15053 ft | 383 kts | 129° |
| 2026-05-07 16:09 | 14.96544 | -16.84642 | 15560 ft | 386 kts | 129° |
| 2026-05-07 16:09 | 14.94880 | -16.82455 | 16144 ft | 390 kts | 129° |
| 2026-05-07 16:10 | 14.93191 | -16.80232 | 16689 ft | 393 kts | 129° |
| 2026-05-07 16:10 | 14.91503 | -16.78007 | 17172 ft | 397 kts | 129° |
| 2026-05-07 16:10 | 14.89795 | -16.75758 | 17674 ft | 400 kts | 129° |
| 2026-05-07 16:10 | 14.88078 | -16.73494 | 18167 ft | 404 kts | 129° |
| 2026-05-07 16:11 | 14.86341 | -16.71203 | 18669 ft | 408 kts | 129° |
| 2026-05-07 16:11 | 14.84590 | -16.68897 | 19121 ft | 412 kts | 129° |
| 2026-05-07 16:11 | 14.82820 | -16.66565 | 19553 ft | 415 kts | 129° |
| 2026-05-07 16:11 | 14.81022 | -16.64199 | 20004 ft | 419 kts | 130° |
| 2026-05-07 16:12 | 14.79225 | -16.61834 | 20445 ft | 422 kts | 130° |
| 2026-05-07 16:12 | 14.77407 | -16.59443 | 20880 ft | 425 kts | 130° |
| 2026-05-07 16:12 | 14.75579 | -16.57039 | 21295 ft | 429 kts | 130° |
| 2026-05-07 16:12 | 14.73736 | -16.54616 | 21707 ft | 432 kts | 130° |
| 2026-05-07 16:13 | 14.71883 | -16.52179 | 22112 ft | 435 kts | 130° |
| 2026-05-07 16:13 | 14.70010 | -16.49718 | 22527 ft | 438 kts | 131° |
| 2026-05-07 16:13 | 14.68116 | -16.47229 | 22907 ft | 441 kts | 131° |
| 2026-05-07 16:13 | 14.66220 | -16.44739 | 23289 ft | 444 kts | 131° |
| 2026-05-07 16:14 | 14.64305 | -16.42230 | 23647 ft | 447 kts | 131° |
| 2026-05-07 16:14 | 14.62296 | -16.39790 | 23989 ft | 449 kts | 135° |
| 2026-05-07 16:14 | 14.60129 | -16.37471 | 24316 ft | 450 kts | 139° |
| 2026-05-07 16:14 | 14.57816 | -16.35297 | 24652 ft | 451 kts | 143° |
| 2026-05-07 16:15 | 14.55440 | -16.33179 | 24979 ft | 454 kts | 143° |
| 2026-05-07 16:15 | 14.53025 | -16.31040 | 25294 ft | 456 kts | 144° |
| 2026-05-07 16:15 | 14.50618 | -16.28908 | 25611 ft | 458 kts | 144° |
| 2026-05-07 16:15 | 14.48196 | -16.26764 | 25903 ft | 461 kts | 144° |
| 2026-05-07 16:16 | 14.45768 | -16.24611 | 26197 ft | 463 kts | 144° |
| 2026-05-07 16:16 | 14.43322 | -16.22440 | 26466 ft | 466 kts | 144° |
| 2026-05-07 16:16 | 14.40871 | -16.20263 | 26731 ft | 468 kts | 144° |
| 2026-05-07 16:16 | 14.38403 | -16.18071 | 27015 ft | 469 kts | 144° |
| 2026-05-07 16:17 | 14.35910 | -16.15858 | 27273 ft | 472 kts | 144° |
| 2026-05-07 16:17 | 14.33423 | -16.13652 | 27500 ft | 474 kts | 144° |
| 2026-05-07 16:17 | 14.30920 | -16.11431 | 27747 ft | 476 kts | 144° |
| 2026-05-07 16:17 | 14.28411 | -16.09203 | 27999 ft | 478 kts | 144° |
| 2026-05-07 16:18 | 14.25897 | -16.06972 | 28313 ft | 478 kts | 145° |
| 2026-05-07 16:18 | 14.23381 | -16.04739 | 28695 ft | 476 kts | 144° |
| 2026-05-07 16:18 | 14.20884 | -16.02524 | 29074 ft | 475 kts | 145° |
| 2026-05-07 16:18 | 14.18368 | -16.00295 | 29417 ft | 474 kts | 145° |
| 2026-05-07 16:19 | 14.15877 | -15.98087 | 29797 ft | 473 kts | 145° |
| 2026-05-07 16:19 | 14.13392 | -15.95887 | 30178 ft | 471 kts | 145° |
| 2026-05-07 16:19 | 14.10923 | -15.93699 | 30557 ft | 469 kts | 145° |
| 2026-05-07 16:19 | 14.08452 | -15.91514 | 30953 ft | 467 kts | 145° |
| 2026-05-07 16:20 | 14.05998 | -15.89342 | 31328 ft | 466 kts | 145° |
| 2026-05-07 16:20 | 14.03547 | -15.87174 | 31666 ft | 465 kts | 145° |
| 2026-05-07 16:20 | 14.01085 | -15.84997 | 32012 ft | 464 kts | 145° |
| 2026-05-07 16:20 | 13.98652 | -15.82843 | 32356 ft | 462 kts | 145° |
| 2026-05-07 16:21 | 13.96219 | -15.80694 | 32723 ft | 460 kts | 144° |
| 2026-05-07 16:21 | 13.93806 | -15.78560 | 33146 ft | 458 kts | 145° |
| 2026-05-07 16:21 | 13.91397 | -15.76432 | 33456 ft | 457 kts | 145° |
| 2026-05-07 16:21 | 13.88981 | -15.74298 | 33644 ft | 459 kts | 144° |
| 2026-05-07 16:22 | 13.86560 | -15.72164 | 33879 ft | 460 kts | 144° |
| 2026-05-07 16:22 | 13.84117 | -15.70007 | 34083 ft | 461 kts | 144° |
| 2026-05-07 16:22 | 13.81689 | -15.67865 | 34325 ft | 461 kts | 144° |
| 2026-05-07 16:22 | 13.79257 | -15.65719 | 34571 ft | 461 kts | 145° |
| 2026-05-07 16:23 | 13.76824 | -15.63574 | 34771 ft | 462 kts | 144° |
| 2026-05-07 16:23 | 13.71941 | -15.59269 | 34778 ft | 463 kts | 144° |
| 2026-05-07 16:24 | 13.67034 | -15.54945 | 34777 ft | 464 kts | 144° |
| 2026-05-07 16:24 | 13.62148 | -15.50641 | 34775 ft | 464 kts | 144° |
| 2026-05-07 16:25 | 13.57263 | -15.46343 | 34768 ft | 463 kts | 144° |
| 2026-05-07 16:25 | 13.52383 | -15.42047 | 34768 ft | 463 kts | 144° |
| 2026-05-07 16:26 | 13.47479 | -15.37737 | 34767 ft | 463 kts | 144° |
| 2026-05-07 16:26 | 13.42605 | -15.33454 | 34770 ft | 462 kts | 144° |
| 2026-05-07 16:27 | 13.37739 | -15.29177 | 34774 ft | 461 kts | 144° |
| 2026-05-07 16:27 | 13.32851 | -15.24885 | 34768 ft | 461 kts | 144° |
| 2026-05-07 16:28 | 13.27981 | -15.20611 | 34760 ft | 462 kts | 144° |
| 2026-05-07 16:28 | 13.23141 | -15.16289 | 34764 ft | 464 kts | 141° |
| 2026-05-07 16:29 | 13.18652 | -15.11502 | 34763 ft | 469 kts | 135° |
| 2026-05-07 16:29 | 13.14674 | -15.06178 | 34763 ft | 471 kts | 129° |
| 2026-05-07 16:30 | 13.10982 | -15.00661 | 34765 ft | 471 kts | 129° |
| 2026-05-07 16:30 | 13.07295 | -14.95149 | 34763 ft | 470 kts | 129° |
| 2026-05-07 16:31 | 13.03584 | -14.89622 | 34763 ft | 470 kts | 129° |
| 2026-05-07 16:31 | 12.99887 | -14.84128 | 34766 ft | 469 kts | 129° |
| 2026-05-07 16:32 | 12.96195 | -14.78644 | 34764 ft | 469 kts | 129° |
| 2026-05-07 16:32 | 12.92502 | -14.73161 | 34765 ft | 468 kts | 128° |
| 2026-05-07 16:33 | 12.88789 | -14.67655 | 34766 ft | 469 kts | 128° |
| 2026-05-07 16:33 | 12.85095 | -14.62178 | 34765 ft | 469 kts | 128° |
| 2026-05-07 16:34 | 12.81396 | -14.56693 | 34761 ft | 468 kts | 129° |
| 2026-05-07 16:34 | 12.77695 | -14.51210 | 34761 ft | 468 kts | 128° |
| 2026-05-07 16:35 | 12.74004 | -14.45752 | 34760 ft | 467 kts | 128° |
| 2026-05-07 16:35 | 12.70315 | -14.40304 | 34762 ft | 467 kts | 128° |
| 2026-05-07 16:36 | 12.66632 | -14.34868 | 34763 ft | 466 kts | 129° |
| 2026-05-07 16:36 | 12.62936 | -14.29409 | 34766 ft | 466 kts | 129° |
| 2026-05-07 16:37 | 12.59253 | -14.23975 | 34768 ft | 466 kts | 128° |
| 2026-05-07 16:37 | 12.55566 | -14.18539 | 34769 ft | 466 kts | 129° |
| 2026-05-07 16:38 | 12.51872 | -14.13093 | 34773 ft | 466 kts | 129° |
| 2026-05-07 16:38 | 12.48188 | -14.07664 | 34771 ft | 466 kts | 129° |
| 2026-05-07 16:39 | 12.44507 | -14.02241 | 34771 ft | 466 kts | 129° |
| 2026-05-07 16:39 | 12.40822 | -13.96819 | 34764 ft | 466 kts | 129° |
| 2026-05-07 16:40 | 12.37119 | -13.91372 | 34759 ft | 466 kts | 129° |
| 2026-05-07 16:40 | 12.33433 | -13.85950 | 34758 ft | 465 kts | 128° |
| 2026-05-07 16:41 | 12.29745 | -13.80529 | 34760 ft | 466 kts | 128° |
| 2026-05-07 16:41 | 12.25977 | -13.75148 | 34762 ft | 464 kts | 131° |
| 2026-05-07 16:42 | 12.21948 | -13.70024 | 34764 ft | 464 kts | 133° |
| 2026-05-07 16:42 | 12.17893 | -13.64914 | 34766 ft | 464 kts | 133° |
| 2026-05-07 16:43 | 12.13855 | -13.59812 | 34772 ft | 463 kts | 133° |
| 2026-05-07 16:43 | 12.09793 | -13.54684 | 34776 ft | 464 kts | 132° |
| 2026-05-07 16:44 | 12.05742 | -13.49569 | 34781 ft | 464 kts | 133° |
| 2026-05-07 16:44 | 12.01693 | -13.44454 | 34784 ft | 464 kts | 133° |
| 2026-05-07 16:45 | 11.97631 | -13.39328 | 34782 ft | 464 kts | 132° |
| 2026-05-07 16:45 | 11.93584 | -13.34224 | 34773 ft | 464 kts | 133° |
| 2026-05-07 16:46 | 11.89534 | -13.29116 | 34769 ft | 465 kts | 132° |
| 2026-05-07 16:46 | 11.85476 | -13.24003 | 34770 ft | 465 kts | 132° |
| 2026-05-07 16:47 | 11.81401 | -13.18867 | 34776 ft | 465 kts | 132° |
| 2026-05-07 16:47 | 11.77433 | -13.13687 | 34783 ft | 466 kts | 129° |
| 2026-05-07 16:48 | 11.73736 | -13.08270 | 34788 ft | 467 kts | 128° |
| 2026-05-07 16:48 | 11.70038 | -13.02812 | 34804 ft | 467 kts | 128° |
| 2026-05-07 16:49 | 11.66352 | -12.97379 | 34828 ft | 466 kts | 128° |
| 2026-05-07 16:49 | 11.62666 | -12.91951 | 34848 ft | 466 kts | 128° |
| 2026-05-07 16:50 | 11.58984 | -12.86537 | 34860 ft | 466 kts | 128° |
| 2026-05-07 16:50 | 11.55292 | -12.81106 | 34870 ft | 467 kts | 128° |
| 2026-05-07 16:51 | 11.51600 | -12.75686 | 34878 ft | 466 kts | 128° |
| 2026-05-07 16:51 | 11.47914 | -12.70271 | 34897 ft | 466 kts | 128° |
| 2026-05-07 16:52 | 11.44213 | -12.64836 | 34935 ft | 466 kts | 128° |
| 2026-05-07 16:52 | 11.40524 | -12.59429 | 34963 ft | 466 kts | 128° |
| 2026-05-07 16:53 | 11.36843 | -12.54031 | 34992 ft | 466 kts | 127° |
| 2026-05-07 16:53 | 11.33162 | -12.48634 | 35014 ft | 465 kts | 128° |
| 2026-05-07 16:54 | 11.29471 | -12.43223 | 35019 ft | 464 kts | 128° |
| 2026-05-07 16:54 | 11.25796 | -12.37843 | 35030 ft | 464 kts | 128° |
| 2026-05-07 16:55 | 11.22061 | -12.32507 | 35031 ft | 464 kts | 129° |
| 2026-05-07 16:55 | 11.18253 | -12.27194 | 35027 ft | 463 kts | 129° |
| 2026-05-07 16:56 | 11.14468 | -12.21895 | 35014 ft | 463 kts | 129° |
| 2026-05-07 16:56 | 11.08810 | -12.13965 | 34987 ft | 462 kts | 129° |
| 2026-05-07 16:57 | 11.05034 | -12.08674 | 34972 ft | 461 kts | 129° |
| 2026-05-07 16:57 | 11.01276 | -12.03407 | 34968 ft | 461 kts | 129° |
| 2026-05-07 16:58 | 10.97521 | -11.98146 | 34975 ft | 461 kts | 128° |
| 2026-05-07 16:58 | 10.93766 | -11.92889 | 34983 ft | 461 kts | 128° |
| 2026-05-07 16:59 | 10.89990 | -11.87604 | 34973 ft | 462 kts | 128° |
| 2026-05-07 16:59 | 10.86223 | -11.82334 | 34965 ft | 462 kts | 129° |
| 2026-05-07 17:00 | 10.82453 | -11.77063 | 34958 ft | 462 kts | 129° |
| 2026-05-07 17:00 | 10.78676 | -11.71783 | 34945 ft | 461 kts | 128° |
| 2026-05-07 17:01 | 10.74913 | -11.66523 | 34946 ft | 462 kts | 129° |
| 2026-05-07 17:01 | 10.71149 | -11.61265 | 34949 ft | 462 kts | 129° |
| 2026-05-07 17:02 | 10.67378 | -11.56004 | 34955 ft | 462 kts | 129° |
| 2026-05-07 17:02 | 10.63513 | -11.50789 | 34961 ft | 461 kts | 130° |
| 2026-05-07 17:03 | 10.59600 | -11.45650 | 34961 ft | 461 kts | 130° |
| 2026-05-07 17:03 | 10.55680 | -11.40491 | 34959 ft | 462 kts | 130° |